Time;durP1;ratioP1;P1;durP2;ratioP2;P2;SDS_P1;SDS_P2;PMS_P1;PMS_P2;Temp;Humidity;BMP_temperature;BMP_pressure;BME280_temperature;BME280_humidity;BME280_pressure;Samples;Min_cycle;Max_cycle;Signal;HPM_P1;HPM_P2
2022/05/29 00:00:59;;;;;;;8.70;3.70;;;8.10;1.00;;;;;;5026191;28;20486;-62
2022/05/29 00:03:26;;;;;;;6.53;3.40;;;8.00;1.00;;;;;;5037284;28;20517;-62
2022/05/29 00:05:53;;;;;;;8.03;3.57;;;8.00;1.00;;;;;;5031269;28;20442;-62
2022/05/29 00:08:25;;;;;;;8.03;4.03;;;8.00;1.00;;;;;;5023070;28;20534;-62
2022/05/29 00:10:52;;;;;;;10.77;3.50;;;7.90;1.00;;;;;;5031655;28;20467;-62
2022/05/29 00:13:31;;;;;;;8.20;3.43;;;7.90;1.00;;;;;;5037031;28;20549;-62
2022/05/29 00:15:58;;;;;;;5.80;3.67;;;7.90;1.00;;;;;;5023285;28;20762;-62
2022/05/29 00:18:26;;;;;;;6.40;3.20;;;7.90;1.00;;;;;;5023560;28;20471;-62
2022/05/29 00:20:55;;;;;;;5.67;3.40;;;7.90;1.00;;;;;;5013280;28;20459;-62
2022/05/29 00:23:25;;;;;;;6.27;3.50;;;7.80;1.00;;;;;;5036798;28;20467;-62
2022/05/29 00:25:53;;;;;;;6.43;3.00;;;7.80;1.00;;;;;;5036914;28;20880;-62
2022/05/29 00:28:23;;;;;;;7.03;3.47;;;7.80;1.00;;;;;;5035599;28;20493;-62
2022/05/29 00:30:51;;;;;;;6.60;3.67;;;7.80;1.00;;;;;;5028303;28;20503;-62
2022/05/29 00:33:19;;;;;;;8.00;4.13;;;7.80;1.00;;;;;;5036053;28;21002;-62
2022/05/29 00:35:46;;;;;;;11.73;3.60;;;7.60;1.00;;;;;;5025354;28;20463;-62
2022/05/29 00:38:14;;;;;;;7.63;3.83;;;7.60;1.00;;;;;;5036620;28;20463;-62
2022/05/29 00:40:49;;;;;;;10.10;3.67;;;7.60;1.00;;;;;;5034058;28;20897;-62
2022/05/29 00:43:16;;;;;;;10.30;4.10;;;7.60;1.00;;;;;;5036841;28;20517;-62
2022/05/29 00:45:48;;;;;;;8.43;3.57;;;7.50;1.00;;;;;;5029102;28;20959;-62
2022/05/29 00:48:17;;;;;;;11.77;4.07;;;7.40;1.00;;;;;;5036383;28;20927;-62
2022/05/29 00:50:45;;;;;;;10.33;3.83;;;7.30;1.00;;;;;;5028695;28;20559;-62
2022/05/29 00:53:14;;;;;;;8.00;4.27;;;7.30;1.00;;;;;;5026695;28;20469;-62
2022/05/29 00:55:43;;;;;;;6.20;4.57;;;7.30;1.00;;;;;;5025970;28;20583;-62
2022/05/29 00:58:11;;;;;;;8.47;3.80;;;7.30;26.80;;;;;;5027115;28;20832;-62
2022/05/29 01:00:38;;;;;;;7.40;4.00;;;7.20;83.80;;;;;;5027157;28;20499;-62
2022/05/29 01:03:07;;;;;;;6.17;3.90;;;7.20;99.90;;;;;;5025957;28;20459;-62
2022/05/29 01:05:39;;;;;;;6.37;3.30;;;7.20;99.90;;;;;;5027246;28;20475;-62
2022/05/29 01:08:11;;;;;;;8.23;4.03;;;7.10;29.10;;;;;;5028177;28;20466;-62
2022/05/29 01:10:52;;;;;;;9.00;3.67;;;7.10;1.00;;;;;;5035796;28;20499;-62
2022/05/29 01:13:30;;;;;;;8.33;3.80;;;7.10;33.40;;;;;;5026811;28;20487;-62
2022/05/29 01:16:05;;;;;;;6.63;3.67;;;7.10;1.00;;;;;;5028075;28;20526;-62
2022/05/29 01:18:50;;;;;;;11.63;4.33;;;7.00;74.10;;;;;;5034740;28;20463;-62
2022/05/29 01:21:40;;;;;;;4.63;3.73;;;7.00;99.90;;;;;;5035090;28;20776;-62
2022/05/29 01:24:29;;;;;;;10.40;4.50;;;7.00;99.90;;;;;;5004152;28;20495;-62
2022/05/29 01:27:24;;;;;;;8.07;4.20;;;6.90;99.90;;;;;;5031991;28;20470;-62
2022/05/29 01:30:03;;;;;;;5.97;3.60;;;6.90;99.90;;;;;;5038041;28;20453;-62
2022/05/29 01:32:42;;;;;;;8.47;4.03;;;6.80;88.90;;;;;;5031289;28;20543;-62
2022/05/29 01:35:14;;;;;;;5.07;3.30;;;6.80;86.80;;;;;;5034243;28;20459;-61
2022/05/29 01:37:50;;;;;;;10.73;4.77;;;6.80;26.70;;;;;;5025119;28;20827;-62
2022/05/29 01:40:27;;;;;;;12.00;5.53;;;6.80;44.20;;;;;;5035823;28;20525;-62
2022/05/29 01:42:58;;;;;;;5.90;3.67;;;6.80;99.90;;;;;;5031992;28;20535;-62
2022/05/29 01:45:34;;;;;;;11.20;4.53;;;6.80;95.10;;;;;;5037704;28;20463;-62
2022/05/29 01:48:08;;;;;;;8.20;4.03;;;6.70;99.90;;;;;;5026162;28;20510;-62
2022/05/29 01:50:41;;;;;;;4.20;3.30;;;6.70;99.90;;;;;;5038909;28;20471;-61
2022/05/29 01:53:15;;;;;;;6.93;4.00;;;6.60;99.90;;;;;;5034774;28;20916;-61
2022/05/29 01:55:46;;;;;;;8.53;3.83;;;6.50;99.90;;;;;;5039723;28;20783;-62
2022/05/29 01:58:19;;;;;;;10.60;4.30;;;6.50;99.90;;;;;;5030019;28;20528;-62
2022/05/29 02:00:49;;;;;;;11.83;4.87;;;6.50;99.90;;;;;;5039408;28;20891;-62
2022/05/29 02:03:20;;;;;;;11.33;8.40;;;6.50;99.90;;;;;;5035630;28;20462;-62
2022/05/29 02:05:56;;;;;;;15.73;5.17;;;6.50;99.90;;;;;;5025471;28;20860;-62
2022/05/29 02:08:29;;;;;;;11.10;5.83;;;6.60;99.90;;;;;;5035885;28;20521;-62
2022/05/29 02:11:01;;;;;;;9.13;4.57;;;6.50;99.90;;;;;;5039318;28;20931;-62
2022/05/29 02:13:32;;;;;;;10.67;4.30;;;6.60;1.00;;;;;;5037900;28;20541;-62
2022/05/29 02:16:07;;;;;;;7.93;4.10;;;6.60;1.00;;;;;;5029167;28;20761;-62
2022/05/29 02:18:40;;;;;;;8.30;4.40;;;6.60;99.90;;;;;;5027701;28;20550;-62
2022/05/29 02:21:14;;;;;;;8.30;3.60;;;6.50;99.90;;;;;;5019291;28;20538;-62
2022/05/29 02:23:45;;;;;;;8.37;3.47;;;6.50;1.00;;;;;;5031710;28;20983;-62
2022/05/29 02:26:24;;;;;;;9.57;4.27;;;6.50;1.00;;;;;;5031724;28;20914;-62
2022/05/29 02:28:55;;;;;;;8.60;3.87;;;6.50;1.00;;;;;;5033028;28;20805;-62
2022/05/29 02:31:35;;;;;;;9.70;3.87;;;6.40;1.00;;;;;;5033755;28;20470;-62
2022/05/29 02:34:06;;;;;;;8.17;3.67;;;6.40;1.00;;;;;;5038894;28;20526;-62
2022/05/29 02:36:41;;;;;;;6.00;4.17;;;6.30;35.30;;;;;;5037284;28;20891;-62
2022/05/29 02:39:20;;;;;;;4.50;3.97;;;6.20;99.90;;;;;;5035180;28;20868;-62
2022/05/29 02:41:59;;;;;;;4.03;3.70;;;6.30;1.00;;;;;;5037915;28;20942;-62
2022/05/29 02:44:38;;;;;;;6.33;3.73;;;6.30;99.90;;;;;;5038573;28;20528;-62
2022/05/29 02:47:20;;;;;;;7.10;3.50;;;6.20;99.90;;;;;;5020291;28;20464;-62
2022/05/29 02:50:03;;;;;;;8.57;4.03;;;6.20;1.00;;;;;;5036978;28;20528;-62
2022/05/29 02:52:30;;;;;;;9.17;4.17;;;6.20;99.90;;;;;;5038471;28;20466;-62
2022/05/29 02:54:58;;;;;;;7.83;3.77;;;6.10;99.90;;;;;;5037990;28;20569;-62
2022/05/29 02:57:25;;;;;;;7.00;3.80;;;6.10;1.00;;;;;;5025796;28;20503;-61
2022/05/29 02:59:58;;;;;;;8.70;4.00;;;6.20;1.00;;;;;;5036719;28;20893;-62
2022/05/29 03:02:37;;;;;;;9.00;4.30;;;6.30;1.00;;;;;;5024614;28;20893;-62
2022/05/29 03:05:14;;;;;;;13.20;4.30;;;6.40;1.00;;;;;;5038354;28;20508;-62
2022/05/29 03:07:54;;;;;;;5.67;4.03;;;6.40;1.00;;;;;;5030961;28;20769;-62
2022/05/29 03:10:24;;;;;;;8.90;4.03;;;6.40;1.00;;;;;;5035940;28;20549;-62
2022/05/29 03:13:01;;;;;;;9.40;4.50;;;6.50;99.90;;;;;;5028649;28;20533;-61
2022/05/29 03:15:45;;;;;;;5.90;4.03;;;6.50;99.90;;;;;;5037988;28;20588;-62
2022/05/29 03:18:37;;;;;;;5.80;4.33;;;6.40;99.90;;;;;;5034363;28;20471;-62
2022/05/29 03:21:22;;;;;;;7.20;3.50;;;6.40;99.90;;;;;;5033832;28;20506;-61
2022/05/29 03:23:54;;;;;;;5.67;4.17;;;6.50;99.90;;;;;;4998828;28;20460;-62
2022/05/29 03:26:36;;;;;;;6.10;4.60;;;6.50;99.90;;;;;;4998684;28;20469;-62
2022/05/29 03:29:08;;;;;;;11.90;4.30;;;6.50;99.90;;;;;;5018920;28;20546;-61
2022/05/29 03:31:37;;;;;;;4.87;4.37;;;6.40;1.00;;;;;;5035819;28;20479;-61
2022/05/29 03:34:07;;;;;;;7.00;4.30;;;6.50;84.20;;;;;;5037379;28;20491;-61
2022/05/29 03:36:35;;;;;;;7.13;4.20;;;6.60;4.80;;;;;;5037806;28;20474;-62
2022/05/29 03:39:02;;;;;;;10.10;4.53;;;6.60;1.00;;;;;;5025228;28;20467;-61
2022/05/29 03:41:33;;;;;;;9.80;3.67;;;6.70;99.90;;;;;;5037625;28;20459;-62
2022/05/29 03:44:00;;;;;;;9.20;4.30;;;6.70;1.00;;;;;;5007836;28;20456;-61
2022/05/29 03:46:29;;;;;;;6.87;4.40;;;6.70;1.00;;;;;;5037305;28;20517;-62
2022/05/29 03:48:56;;;;;;;9.33;3.90;;;6.70;1.00;;;;;;5024907;28;20873;-61
2022/05/29 03:51:24;;;;;;;5.73;3.83;;;6.70;1.00;;;;;;5017805;28;20438;-61
2022/05/29 03:53:51;;;;;;;4.80;4.20;;;6.80;1.00;;;;;;5022746;28;20847;-61
2022/05/29 03:56:24;;;;;;;5.40;4.00;;;6.90;96.50;;;;;;5037110;28;20806;-61
2022/05/29 03:58:57;;;;;;;6.00;5.30;;;7.00;4.80;;;;;;5035958;28;20533;-62
2022/05/29 04:01:25;;;;;;;8.00;5.73;;;7.10;1.00;;;;;;5037440;28;20471;-61
2022/05/29 04:03:55;;;;;;;10.10;7.73;;;7.20;1.00;;;;;;5031398;28;20463;-61
2022/05/29 04:06:28;;;;;;;7.10;5.73;;;7.30;99.90;;;;;;5037043;28;20941;-62
2022/05/29 04:14:29;;;;;;;7.67;5.87;;;7.40;99.90;;;;;;5022918;28;20943;-61
2022/05/29 04:17:00;;;;;;;6.90;5.37;;;7.50;99.90;;;;;;5029984;28;20475;-62
2022/05/29 04:19:30;;;;;;;10.53;5.07;;;7.60;99.90;;;;;;5031998;28;20468;-62
2022/05/29 04:21:59;;;;;;;7.20;5.50;;;7.60;99.90;;;;;;5030701;28;20463;-61
2022/05/29 04:24:26;;;;;;;8.77;4.93;;;7.70;99.90;;;;;;5026993;28;20515;-62
2022/05/29 04:26:54;;;;;;;9.60;4.93;;;7.70;99.90;;;;;;5031058;28;20463;-62
2022/05/29 04:29:23;;;;;;;8.03;6.00;;;7.80;99.90;;;;;;5036724;28;20533;-62
2022/05/29 04:34:38;;;;;;;8.97;5.40;;;7.90;99.90;;;;;;5029962;28;20565;-62
2022/05/29 04:37:06;;;;;;;9.17;6.27;;;7.90;99.90;;;;;;5034622;28;20466;-62
2022/05/29 04:39:35;;;;;;;7.93;6.00;;;8.00;99.90;;;;;;5036164;28;20464;-61
2022/05/29 04:42:02;;;;;;;12.53;6.13;;;8.00;99.90;;;;;;5019898;28;20562;-62
2022/05/29 04:44:30;;;;;;;9.17;6.20;;;8.00;99.90;;;;;;5034818;28;20513;-62
2022/05/29 04:46:58;;;;;;;11.67;6.30;;;8.10;99.90;;;;;;5035479;28;20525;-62
2022/05/29 04:49:25;;;;;;;13.07;6.23;;;8.00;99.90;;;;;;5036612;28;20810;-62
2022/05/29 04:51:52;;;;;;;9.83;6.97;;;8.00;99.90;;;;;;5024354;28;20468;-61
2022/05/29 04:54:21;;;;;;;9.97;6.07;;;8.10;99.90;;;;;;5035375;28;20495;-62
2022/05/29 04:56:51;;;;;;;11.33;6.87;;;8.20;99.90;;;;;;5020270;28;20522;-62
2022/05/29 04:59:18;;;;;;;12.10;6.77;;;8.30;99.90;;;;;;5035092;28;20474;-62
2022/05/29 05:01:45;;;;;;;9.63;6.73;;;8.40;99.90;;;;;;5033145;28;20550;-62
2022/05/29 05:04:12;;;;;;;11.33;7.13;;;8.50;99.90;;;;;;5039896;28;20472;-62
2022/05/29 05:06:39;;;;;;;12.13;8.03;;;8.60;99.90;;;;;;5027985;28;20479;-62
2022/05/29 05:09:06;;;;;;;10.90;6.70;;;8.70;99.90;;;;;;5039196;28;20467;-62
2022/05/29 05:11:34;;;;;;;8.33;7.20;;;8.80;99.90;;;;;;5039080;28;20463;-62
2022/05/29 05:14:01;;;;;;;9.90;6.93;;;8.90;99.90;;;;;;5020629;28;20529;-62
2022/05/29 05:16:28;;;;;;;13.00;7.70;;;8.90;99.90;;;;;;5032197;28;20464;-62
2022/05/29 05:18:55;;;;;;;14.17;7.63;;;9.10;99.90;;;;;;5038582;28;20967;-62
2022/05/29 05:21:22;;;;;;;13.70;7.47;;;9.20;93.00;;;;;;5040256;28;20463;-62
2022/05/29 05:23:49;;;;;;;14.20;7.73;;;9.10;1.00;;;;;;5023271;28;20442;-62
2022/05/29 05:26:16;;;;;;;11.87;7.53;;;9.10;1.00;;;;;;5037840;28;20524;-62
2022/05/29 05:28:45;;;;;;;9.27;7.23;;;9.20;1.00;;;;;;5038106;28;20487;-62
2022/05/29 05:31:12;;;;;;;13.00;8.70;;;9.20;1.00;;;;;;5040117;28;20808;-62
2022/05/29 05:33:39;;;;;;;11.63;8.83;;;9.40;1.00;;;;;;5028101;28;20518;-62
2022/05/29 05:36:07;;;;;;;15.10;7.50;;;9.20;1.00;;;;;;5024176;28;20492;-62
2022/05/29 05:38:34;;;;;;;10.30;7.07;;;9.20;1.00;;;;;;5037577;28;20584;-62
2022/05/29 05:41:03;;;;;;;9.50;6.90;;;9.00;1.00;;;;;;5039816;28;20471;-62
2022/05/29 05:43:31;;;;;;;13.10;7.10;;;9.00;1.00;;;;;;5033421;28;20542;-62
2022/05/29 05:45:59;;;;;;;14.40;8.50;;;9.00;1.00;;;;;;5038413;28;20505;-62
2022/05/29 05:48:29;;;;;;;8.13;7.27;;;9.20;1.00;;;;;;5027846;28;20475;-62
2022/05/29 05:50:57;;;;;;;14.53;8.43;;;9.30;1.00;;;;;;5039358;28;20474;-62
2022/05/29 05:53:24;;;;;;;14.00;8.40;;;9.10;1.00;;;;;;5037196;28;20562;-62
2022/05/29 05:55:51;;;;;;;17.60;9.70;;;9.20;33.20;;;;;;5039143;28;20487;-61
2022/05/29 05:58:18;;;;;;;12.83;9.17;;;9.20;65.70;;;;;;5032639;28;20468;-61
2022/05/29 06:00:45;;;;;;;19.93;10.03;;;9.20;86.80;;;;;;5038754;28;20921;-59
2022/05/29 06:03:13;;;;;;;17.07;10.70;;;9.30;99.90;;;;;;5039720;28;20463;-58
2022/05/29 06:05:41;;;;;;;17.40;12.40;;;9.30;90.40;;;;;;5022561;28;20439;-59
2022/05/29 06:08:09;;;;;;;18.67;14.40;;;9.30;99.90;;;;;;5020657;28;20468;-61
2022/05/29 06:10:36;;;;;;;18.27;13.93;;;9.20;99.90;;;;;;5024945;28;20437;-62
2022/05/29 06:13:04;;;;;;;22.13;14.90;;;9.20;99.90;;;;;;5039786;28;20463;-62
2022/05/29 06:15:33;;;;;;;16.20;13.40;;;9.10;99.90;;;;;;5020724;28;20466;-64
2022/05/29 06:17:59;;;;;;;20.63;13.30;;;9.00;99.90;;;;;;5039934;28;20540;-71
2022/05/29 06:20:28;;;;;;;19.47;15.23;;;8.90;1.00;;;;;;5029707;28;20514;-70
2022/05/29 06:22:55;;;;;;;16.13;14.00;;;9.00;1.00;;;;;;5038610;28;20464;-70
2022/05/29 06:25:26;;;;;;;21.20;13.80;;;9.10;99.90;;;;;;5025371;28;20518;-70
2022/05/29 06:27:53;;;;;;;16.17;13.07;;;9.10;1.00;;;;;;5038263;28;20560;-67
2022/05/29 06:30:20;;;;;;;16.70;12.80;;;9.20;1.00;;;;;;5035936;28;20531;-67
2022/05/29 06:32:47;;;;;;;17.33;13.37;;;9.30;1.00;;;;;;5038769;28;20536;-64
2022/05/29 06:35:16;;;;;;;15.80;13.43;;;9.30;1.00;;;;;;5032887;28;20499;-63
2022/05/29 06:37:45;;;;;;;15.20;12.93;;;9.40;1.00;;;;;;5038780;28;20510;-62
2022/05/29 06:40:13;;;;;;;15.20;12.27;;;9.50;1.00;;;;;;5038722;28;20459;-62
2022/05/29 06:42:40;;;;;;;13.57;12.00;;;9.40;99.90;;;;;;5023465;28;20463;-62
2022/05/29 06:45:09;;;;;;;12.27;11.03;;;9.60;1.00;;;;;;5034799;28;20944;-61
2022/05/29 06:47:39;;;;;;;14.30;11.73;;;9.80;1.00;;;;;;5024372;28;20463;-61
2022/05/29 06:50:10;;;;;;;17.43;11.53;;;10.00;1.00;;;;;;5038396;28;20558;-61
2022/05/29 06:52:37;;;;;;;15.87;11.10;;;10.10;99.90;;;;;;5028367;28;20495;-61
2022/05/29 06:55:07;;;;;;;11.43;9.90;;;10.00;99.90;;;;;;5038561;28;20932;-61
2022/05/29 06:57:41;;;;;;;10.63;9.60;;;10.00;99.90;;;;;;5024031;28;20470;-61
2022/05/29 07:08:29;;;;;;;12.30;11.10;;;10.10;99.90;;;;;;5028422;28;20742;-61
2022/05/29 07:10:59;;;;;;;12.23;10.63;;;10.00;99.90;;;;;;5037930;28;20963;-60
2022/05/29 07:13:31;;;;;;;13.30;10.50;;;10.00;99.90;;;;;;5023112;28;20468;-61
2022/05/29 07:15:58;;;;;;;12.10;11.00;;;9.90;99.90;;;;;;5036063;28;21025;-61
2022/05/29 07:18:25;;;;;;;13.57;11.57;;;10.10;99.90;;;;;;5034635;28;20525;-61
2022/05/29 07:20:52;;;;;;;13.13;10.30;;;10.10;67.90;;;;;;5037990;28;20464;-61
2022/05/29 07:23:19;;;;;;;10.53;9.50;;;10.00;5.80;;;;;;5027095;28;20475;-61
2022/05/29 07:25:52;;;;;;;12.57;10.80;;;10.20;1.00;;;;;;5035711;28;20772;-61
2022/05/29 07:28:20;;;;;;;12.20;11.00;;;10.30;1.00;;;;;;5021652;28;20539;-61
2022/05/29 07:30:48;;;;;;;12.90;11.50;;;10.70;7.60;;;;;;5037396;28;20467;-61
2022/05/29 07:33:17;;;;;;;13.10;11.13;;;10.80;1.00;;;;;;5031766;28;20464;-61
2022/05/29 07:35:44;;;;;;;13.83;12.47;;;11.00;1.00;;;;;;5037737;28;20866;-61
2022/05/29 07:38:12;;;;;;;16.17;11.50;;;11.30;1.00;;;;;;5026688;28;20464;-60
2022/05/29 07:40:40;;;;;;;12.73;11.43;;;11.30;1.00;;;;;;5018107;28;20460;-61
2022/05/29 07:43:22;;;;;;;16.67;12.90;;;11.50;1.00;;;;;;5036499;28;20459;-61
2022/05/29 07:45:53;;;;;;;12.90;11.50;;;11.70;1.00;;;;;;5019535;28;20551;-61
2022/05/29 07:48:24;;;;;;;12.20;9.23;;;12.00;1.00;;;;;;5030625;28;20514;-61
2022/05/29 07:50:51;;;;;;;12.13;11.03;;;11.60;1.00;;;;;;5037831;28;20499;-61
2022/05/29 07:53:19;;;;;;;12.10;10.80;;;11.60;1.00;;;;;;5037655;28;20465;-61
2022/05/29 07:55:46;;;;;;;14.37;9.90;;;11.60;1.00;;;;;;5022748;28;20498;-61
2022/05/29 07:58:16;;;;;;;11.30;10.20;;;11.50;1.00;;;;;;5033980;28;20572;-61
2022/05/29 08:00:44;;;;;;;12.73;10.50;;;11.50;1.00;;;;;;5022393;28;20502;-61
2022/05/29 08:03:16;;;;;;;12.83;11.53;;;11.40;1.00;;;;;;5037316;28;20562;-62
2022/05/29 08:05:45;;;;;;;13.07;11.17;;;11.60;1.00;;;;;;5028676;28;20463;-62
2022/05/29 08:08:13;;;;;;;12.40;10.33;;;12.00;1.00;;;;;;5036433;28;20467;-62
2022/05/29 08:10:42;;;;;;;10.77;9.63;;;12.40;1.00;;;;;;5023861;28;20498;-62
2022/05/29 08:13:14;;;;;;;13.87;10.30;;;12.50;1.00;;;;;;5037125;28;20553;-61
2022/05/29 08:15:41;;;;;;;13.53;12.13;;;12.50;1.00;;;;;;5034166;28;20549;-67
2022/05/29 08:18:12;;;;;;;12.60;11.30;;;12.10;1.00;;;;;;5038219;28;20973;-67
2022/05/29 08:20:42;;;;;;;12.50;11.30;;;11.90;1.00;;;;;;5025310;28;20470;-65
2022/05/29 08:23:09;;;;;;;13.13;11.20;;;11.50;1.00;;;;;;5037489;28;20470;-63
2022/05/29 08:31:08;;;;;;;14.40;12.77;;;10.90;1.00;;;;;;5029726;28;20458;-62
2022/05/29 08:33:39;;;;;;;22.63;13.87;;;10.90;1.00;;;;;;5033794;28;20760;-62
2022/05/29 08:36:10;;;;;;;20.73;14.27;;;10.80;1.00;;;;;;5033525;28;20501;-63
2022/05/29 08:38:40;;;;;;;20.90;15.33;;;11.00;31.60;;;;;;5043451;28;20462;-64
2022/05/29 08:41:15;;;;;;;15.00;12.80;;;11.60;99.90;;;;;;5029661;28;20463;-64
2022/05/29 08:43:56;;;;;;;15.00;12.07;;;12.20;1.00;;;;;;5037960;28;20516;-65
2022/05/29 08:46:30;;;;;;;17.20;12.90;;;12.50;1.00;;;;;;5040113;28;20894;-64
2022/05/29 08:48:58;;;;;;;14.10;11.90;;;13.30;1.00;;;;;;5043019;28;20570;-65
2022/05/29 08:51:41;;;;;;;13.93;12.37;;;13.60;1.00;;;;;;5029621;28;20475;-65
2022/05/29 08:54:15;;;;;;;14.60;12.63;;;13.70;1.00;;;;;;5024090;28;20559;-60
2022/05/29 08:56:56;;;;;;;14.53;13.07;;;13.20;1.00;;;;;;5007227;28;20670;-61
2022/05/29 08:59:40;;;;;;;15.13;12.80;;;12.30;1.00;;;;;;5042616;28;20774;-60
2022/05/29 09:02:13;;;;;;;14.93;13.10;;;12.10;1.00;;;;;;5043530;28;20880;-60
2022/05/29 09:04:45;;;;;;;14.70;13.27;;;11.50;1.00;;;;;;5042619;28;20813;-60
2022/05/29 09:07:17;;;;;;;13.77;12.10;;;11.80;1.00;;;;;;5032426;28;20847;-60
2022/05/29 09:09:49;;;;;;;17.67;12.90;;;11.90;1.00;;;;;;5036906;28;20506;-60
2022/05/29 09:12:25;;;;;;;15.53;13.37;;;11.90;1.00;;;;;;5033874;28;20842;-60
2022/05/29 09:14:56;;;;;;;14.20;12.70;;;12.10;1.00;;;;;;5025349;28;20921;-60
2022/05/29 09:17:29;;;;;;;17.13;12.90;;;12.70;1.00;;;;;;5034624;28;20463;-61
2022/05/29 09:19:59;;;;;;;13.57;10.77;;;13.00;1.00;;;;;;5028158;28;20526;-62
2022/05/29 09:22:33;;;;;;;10.67;9.03;;;13.60;1.00;;;;;;5021732;28;20459;-63
2022/05/29 09:25:06;;;;;;;11.17;9.93;;;14.20;99.90;;;;;;5022658;28;20464;-63
2022/05/29 09:27:35;;;;;;;9.73;8.73;;;15.00;99.90;;;;;;5037428;28;20560;-62
2022/05/29 09:30:02;;;;;;;10.40;9.30;;;15.30;99.90;;;;;;5040209;28;20757;-62
2022/05/29 09:32:32;;;;;;;11.80;10.03;;;15.80;99.90;;;;;;5020070;28;20612;-62
2022/05/29 09:35:07;;;;;;;10.40;9.23;;;16.40;99.90;;;;;;5037885;28;20466;-62
2022/05/29 09:37:45;;;;;;;9.93;9.03;;;15.70;99.90;;;;;;5027929;28;20969;-63
2022/05/29 09:40:21;;;;;;;10.70;9.27;;;15.70;99.90;;;;;;5040354;28;20970;-62
2022/05/29 09:42:53;;;;;;;10.33;9.30;;;16.00;99.90;;;;;;5040296;28;20994;-62
2022/05/29 09:45:30;;;;;;;11.17;9.83;;;15.50;99.90;;;;;;5042958;28;20467;-62
2022/05/29 09:50:53;;;;;;;13.77;11.43;;;14.60;99.90;;;;;;5012228;28;20451;-63
2022/05/29 09:53:25;;;;;;;13.67;12.27;;;13.90;99.90;;;;;;5018932;28;20463;-63
2022/05/29 09:55:58;;;;;;;19.97;11.70;;;13.90;99.90;;;;;;5035872;28;20474;-63
2022/05/29 09:58:31;;;;;;;14.20;11.57;;;13.80;99.90;;;;;;5025106;28;20798;-63
2022/05/29 10:01:07;;;;;;;10.40;9.50;;;13.70;99.90;;;;;;5038019;28;20877;-62
2022/05/29 10:03:48;;;;;;;12.07;9.00;;;13.00;99.90;;;;;;5029960;28;20570;-61
2022/05/29 10:06:26;;;;;;;9.70;7.87;;;12.80;99.90;;;;;;5039501;28;20467;-61
2022/05/29 10:09:12;;;;;;;8.97;7.73;;;11.90;1.00;;;;;;5025504;28;20537;-60
2022/05/29 10:11:46;;;;;;;10.30;7.70;;;11.70;1.00;;;;;;5035013;28;20502;-62
2022/05/29 10:14:36;;;;;;;11.73;8.00;;;12.00;1.00;;;;;;5037267;28;20524;-62
2022/05/29 10:17:11;;;;;;;10.13;8.07;;;12.20;1.00;;;;;;5039262;28;20538;-62
2022/05/29 10:19:40;;;;;;;8.43;7.20;;;12.20;1.00;;;;;;5024201;28;20472;-62
2022/05/29 10:22:14;;;;;;;10.73;8.67;;;12.80;1.00;;;;;;5038108;28;20946;-63
2022/05/29 10:24:43;;;;;;;7.40;5.50;;;13.30;1.00;;;;;;5022668;28;20463;-63
2022/05/29 10:27:22;;;;;;;7.40;5.73;;;13.60;99.90;;;;;;5039150;28;20841;-63
2022/05/29 10:29:54;;;;;;;6.03;5.23;;;13.90;99.90;;;;;;5035716;28;20466;-64
2022/05/29 10:32:31;;;;;;;7.03;5.70;;;14.30;99.90;;;;;;5038952;28;20486;-63
2022/05/29 10:35:26;;;;;;;5.93;4.97;;;14.40;99.90;;;;;;5031832;28;20513;-63
2022/05/29 10:38:01;;;;;;;7.67;5.50;;;15.30;99.90;;;;;;5036556;28;20529;-65
2022/05/29 10:40:32;;;;;;;7.53;4.80;;;15.50;99.90;;;;;;5028846;28;20630;-66
2022/05/29 10:43:03;;;;;;;5.77;4.73;;;16.10;99.90;;;;;;5032603;28;20819;-65
2022/05/29 10:45:34;;;;;;;6.80;4.97;;;16.40;99.90;;;;;;5030575;28;20910;-63
2022/05/29 10:48:41;;;;;;;5.93;4.80;;;16.10;99.90;;;;;;5021920;28;20472;-65
2022/05/29 10:51:17;;;;;;;4.83;4.00;;;15.90;99.90;;;;;;5008681;28;20471;-64
2022/05/29 10:54:07;;;;;;;5.00;4.57;;;15.60;99.90;;;;;;5001092;28;20800;-64
2022/05/29 10:57:06;;;;;;;5.73;4.57;;;15.20;99.90;;;;;;5021737;28;20932;-65
2022/05/29 10:59:59;;;;;;;3.63;3.33;;;15.90;99.90;;;;;;5038071;28;20467;-65
2022/05/29 11:05:44;;;;;;;5.13;4.63;;;16.00;99.90;;;;;;5031609;28;20459;-65
2022/05/29 11:08:44;;;;;;;5.73;4.57;;;15.50;99.90;;;;;;5037422;28;20529;-65
2022/05/29 11:11:25;;;;;;;5.30;4.20;;;15.60;99.90;;;;;;5033045;28;20471;-65
2022/05/29 11:14:19;;;;;;;3.73;3.43;;;15.60;99.90;;;;;;5022838;28;20429;-67
2022/05/29 11:16:57;;;;;;;3.97;3.23;;;14.90;99.90;;;;;;5032685;28;20491;-68
2022/05/29 11:19:52;;;;;;;3.80;3.50;;;14.70;99.90;;;;;;5037951;28;20469;-67
2022/05/29 11:22:26;;;;;;;4.63;4.23;;;15.10;99.90;;;;;;5029685;28;20468;-68
2022/05/29 11:25:06;;;;;;;5.20;4.80;;;15.30;99.90;;;;;;5033537;28;20471;-71
2022/05/29 11:27:52;;;;;;;5.60;4.40;;;15.20;99.90;;;;;;5022437;28;20587;-68
2022/05/29 11:30:26;;;;;;;4.43;4.03;;;14.70;99.90;;;;;;5018534;28;20503;-69
2022/05/29 11:33:15;;;;;;;5.37;4.33;;;14.30;99.90;;;;;;5006959;28;20451;-67
2022/05/29 11:36:02;;;;;;;3.80;3.47;;;14.30;99.90;;;;;;5036779;28;20463;-66
2022/05/29 11:39:00;;;;;;;4.57;4.10;;;13.90;99.90;;;;;;5023574;28;20915;-66
2022/05/29 11:41:34;;;;;;;4.80;3.43;;;14.10;99.90;;;;;;5038129;28;20470;-67
2022/05/29 11:44:06;;;;;;;2.80;2.60;;;14.40;99.90;;;;;;5033476;28;20467;-67
2022/05/29 11:52:26;;;;;;;3.23;2.90;;;14.80;99.90;;;;;;5035623;28;21026;-66
2022/05/29 11:55:03;;;;;;;2.93;2.73;;;15.30;99.90;;;;;;5017618;28;20507;-66
2022/05/29 11:57:36;;;;;;;3.43;2.70;;;15.40;99.90;;;;;;5001622;28;20848;-66
2022/05/29 12:00:08;;;;;;;3.10;2.87;;;15.50;99.90;;;;;;5037608;28;20493;-66
2022/05/29 12:02:48;;;;;;;3.97;2.23;;;15.60;99.90;;;;;;5038581;28;20467;-67
2022/05/29 12:05:27;;;;;;;3.37;2.67;;;15.50;99.90;;;;;;5024300;28;20470;-66
2022/05/29 12:08:00;;;;;;;3.50;2.80;;;15.10;99.90;;;;;;5033397;28;20820;-65
2022/05/29 12:10:35;;;;;;;3.07;2.73;;;14.90;99.90;;;;;;5023243;28;20467;-65
2022/05/29 12:13:11;;;;;;;3.30;2.87;;;15.40;99.90;;;;;;5036324;28;20467;-65
2022/05/29 12:15:38;;;;;;;3.07;2.70;;;16.00;99.90;;;;;;5028496;28;20505;-65
2022/05/29 12:18:13;;;;;;;4.27;2.70;;;16.20;99.90;;;;;;5034595;28;20519;-66
2022/05/29 12:20:43;;;;;;;3.27;3.07;;;16.50;99.90;;;;;;5018724;28;20461;-65
2022/05/29 12:23:32;;;;;;;2.97;2.67;;;16.40;99.90;;;;;;5037757;28;20502;-65
2022/05/29 12:26:03;;;;;;;4.93;3.03;;;16.30;99.90;;;;;;5035226;28;20442;-65
2022/05/29 12:28:42;;;;;;;4.10;3.20;;;14.90;99.90;;;;;;5035124;28;20601;-65
2022/05/29 12:31:13;;;;;;;6.13;3.47;;;13.20;99.90;;;;;;5031374;28;20470;-64
2022/05/29 12:33:45;;;;;;;5.10;3.30;;;12.60;1.00;;;;;;5037707;28;20736;-62
2022/05/29 12:36:30;;;;;;;6.10;3.90;;;11.60;1.00;;;;;;5022454;28;20471;-63
2022/05/29 12:39:12;;;;;;;5.73;3.50;;;11.10;1.00;;;;;;4998284;28;20523;-61
2022/05/29 12:42:27;;;;;;;9.10;3.93;;;10.80;10.60;;;;;;4999881;28;20463;-60
2022/05/29 12:45:24;;;;;;;3.80;3.40;;;10.50;14.20;;;;;;4996145;28;20472;-60
2022/05/29 12:48:31;;;;;;;4.37;2.97;;;10.10;1.00;;;;;;4999073;28;20534;-61
2022/05/29 12:51:18;;;;;;;5.03;3.40;;;10.00;38.20;;;;;;5021247;28;20763;-61
2022/05/29 12:54:16;;;;;;;6.90;3.43;;;10.00;99.90;;;;;;4998879;28;20461;-61
2022/05/29 12:57:16;;;;;;;7.00;3.43;;;10.20;99.90;;;;;;5029689;28;20494;-61
2022/05/29 13:00:25;;;;;;;4.10;3.47;;;10.50;99.90;;;;;;5036591;28;20471;-60
2022/05/29 13:03:21;;;;;;;4.90;4.00;;;10.70;1.00;;;;;;5026873;28;20466;-61
2022/05/29 13:06:21;;;;;;;5.87;4.07;;;10.90;1.00;;;;;;5011213;28;20467;-62
2022/05/29 13:09:19;;;;;;;5.60;4.07;;;11.00;1.00;;;;;;5002844;28;20519;-63
2022/05/29 13:11:52;;;;;;;4.33;3.77;;;11.30;1.00;;;;;;5030725;28;20556;-63
2022/05/29 13:14:22;;;;;;;5.07;3.93;;;11.50;1.00;;;;;;5036298;28;20495;-63
2022/05/29 13:17:03;;;;;;;3.90;3.33;;;11.70;1.00;;;;;;5032512;28;20549;-63
2022/05/29 13:20:02;;;;;;;5.57;3.50;;;11.80;1.00;;;;;;5017339;28;20910;-63
2022/05/29 13:22:50;;;;;;;7.70;3.77;;;12.00;1.00;;;;;;5017398;28;20538;-63
2022/05/29 13:25:20;;;;;;;4.17;3.50;;;12.20;1.00;;;;;;5039383;28;20959;-62
2022/05/29 13:27:48;;;;;;;5.07;3.80;;;12.40;1.00;;;;;;5031222;28;20479;-62
2022/05/29 13:30:55;;;;;;;4.73;3.37;;;12.80;1.00;;;;;;5039458;28;20513;-62
2022/05/29 13:33:55;;;;;;;4.60;3.10;;;13.00;1.00;;;;;;5022045;28;20558;-61
2022/05/29 13:37:09;;;;;;;3.80;3.07;;;13.30;1.00;;;;;;5031101;28;20550;-61
2022/05/29 13:40:06;;;;;;;6.17;3.60;;;13.50;99.90;;;;;;5034884;28;20463;-61
2022/05/29 13:42:43;;;;;;;7.70;3.67;;;14.00;99.90;;;;;;5023968;28;20519;-62
2022/05/29 13:45:58;;;;;;;3.40;3.10;;;14.10;99.90;;;;;;5012757;28;20526;-61
2022/05/29 13:48:30;;;;;;;5.33;3.13;;;14.60;99.90;;;;;;4953311;28;20579;-62
2022/05/29 13:51:03;;;;;;;5.53;3.63;;;15.10;99.90;;;;;;4956586;28;20533;-61
2022/05/29 13:53:49;;;;;;;5.73;3.33;;;15.60;99.90;;;;;;4994979;28;20468;-61
2022/05/29 13:56:21;;;;;;;4.00;3.10;;;15.90;99.90;;;;;;5019142;28;20778;-62
2022/05/29 14:05:12;;;;;;;4.20;3.53;;;16.10;99.90;;;;;;4977335;28;20438;-62
2022/05/29 14:07:40;;;;;;;5.07;3.67;;;16.70;99.90;;;;;;5009855;28;20567;-64